Time;durP1;ratioP1;P1;durP2;ratioP2;P2;SDS_P1;SDS_P2;PMS_P1;PMS_P2;Temp;Humidity;BMP_temperature;BMP_pressure;BME280_temperature;BME280_humidity;BME280_pressure;Samples;Min_cycle;Max_cycle;Signal;HPM_P1;HPM_P2
2019/04/14 00:02:07;;;;;;;33.4;26;;;;;;;5.53;54.70313;959.4824;;;;
2019/04/14 00:04:09;;;;;;;30;25.3;;;;;;;5.54;55.04492;959.4297;;;;
2019/04/14 00:06:28;;;;;;;32.9;26.4;;;;;;;5.67;54.10547;959.3867;;;;
2019/04/14 00:08:53;;;;;;;33.7;27.8;;;;;;;5.42;55.57617;959.4034;;;;
2019/04/14 00:11:18;;;;;;;34.3;27.1;;;;;;;5.31;56.53906;959.4022;;;;
2019/04/14 00:13:43;;;;;;;32.9;27.7;;;;;;;5.31;57.58496;959.4192;;;;
2019/04/14 00:16:10;;;;;;;33.5;27.8;;;;;;;5.33;58.42969;959.4525;;;;
2019/04/14 00:18:35;;;;;;;34.6;27.8;;;;;;;5.34;58.58984;959.4559;;;;
2019/04/14 00:21:03;;;;;;;35.6;28.1;;;;;;;5.3;57.70898;959.4464;;;;
2019/04/14 00:23:28;;;;;;;32.2;26.8;;;;;;;5.28;57.70605;959.4084;;;;
2019/04/14 00:25:54;;;;;;;32.4;26.6;;;;;;;5.19;57.35156;959.3417;;;;
2019/04/14 00:28:19;;;;;;;36.1;28.8;;;;;;;5.2;60.21875;959.3147;;;;
2019/04/14 00:30:44;;;;;;;36.6;29.1;;;;;;;5.03;58.91016;959.2961;;;;
2019/04/14 00:33:11;;;;;;;35.8;29;;;;;;;4.95;59.21777;959.3397;;;;
2019/04/14 00:39:22;;;;;;;37.9;29.7;;;;;;;4.99;59.49512;959.2772;;;;
2019/04/14 00:41:41;;;;;;;34.9;29.3;;;;;;;5.04;59.28711;959.3084;;;;
2019/04/14 00:44:05;;;;;;;35;28.9;;;;;;;5.15;59.06348;959.3655;;;;
2019/04/14 00:46:34;;;;;;;36.4;29.9;;;;;;;4.89;59.6875;959.3865;;;;
2019/04/14 00:48:52;;;;;;;36;29.9;;;;;;;4.97;60.29785;959.2831;;;;
2019/04/14 00:51:17;;;;;;;36.2;29.6;;;;;;;4.99;60.22363;959.3283;;;;
2019/04/14 00:53:43;;;;;;;34.4;28.4;;;;;;;4.99;60.22266;959.3371;;;;
2019/04/14 00:56:09;;;;;;;36.6;30.2;;;;;;;4.84;59.98535;959.3043;;;;
2019/04/14 00:58:35;;;;;;;36.2;28.4;;;;;;;4.88;61.10449;959.3231;;;;
2019/04/14 01:01:00;;;;;;;36.7;29.5;;;;;;;4.91;59.53027;959.3036;;;;
2019/04/14 01:03:26;;;;;;;39.7;30.4;;;;;;;4.86;60.10254;959.3499;;;;
2019/04/14 01:05:53;;;;;;;35.5;28.9;;;;;;;4.99;58.88184;959.3329;;;;
2019/04/14 01:08:18;;;;;;;36.5;29.1;;;;;;;4.92;59.40723;959.3588;;;;
2019/04/14 01:10:43;;;;;;;34.9;28.8;;;;;;;4.96;59.52539;959.2657;;;;
2019/04/14 01:13:08;;;;;;;37.1;28.8;;;;;;;4.95;59.54688;959.288;;;;
2019/04/14 01:15:33;;;;;;;35.6;29;;;;;;;5.02;58.63672;959.2963;;;;
2019/04/14 01:17:59;;;;;;;36.1;29;;;;;;;4.93;59.04492;959.3411;;;;
2019/04/14 01:20:24;;;;;;;36.1;29.2;;;;;;;5.01;58.6123;959.3145;;;;
2019/04/14 01:22:50;;;;;;;37.9;29.3;;;;;;;4.92;58.95215;959.3458;;;;
2019/04/14 01:25:15;;;;;;;38.6;30.1;;;;;;;4.88;59.63965;959.3144;;;;
2019/04/14 01:27:40;;;;;;;36.1;29.5;;;;;;;4.79;59.5127;959.2558;;;;
2019/04/14 01:30:05;;;;;;;36.2;29.8;;;;;;;4.91;58.56348;959.2783;;;;
2019/04/14 01:32:30;;;;;;;37.2;29.8;;;;;;;4.78;59.35254;959.2601;;;;
2019/04/14 01:34:55;;;;;;;38.2;29.4;;;;;;;4.75;59.76953;959.288;;;;
2019/04/14 01:37:21;;;;;;;37.7;30.5;;;;;;;4.64;60.68555;959.3039;;;;
2019/04/14 01:39:46;;;;;;;36.4;28.9;;;;;;;4.65;60.16309;959.2728;;;;
2019/04/14 01:42:11;;;;;;;38.5;30.8;;;;;;;4.67;60.06445;959.272;;;;
2019/04/14 01:44:36;;;;;;;36.9;30;;;;;;;4.83;59.10938;959.2878;;;;
2019/04/14 01:47:01;;;;;;;39.7;30.5;;;;;;;4.78;59.38574;959.3293;;;;
2019/04/14 01:49:26;;;;;;;37.3;29.1;;;;;;;4.88;58.44629;959.2327;;;;
2019/04/14 01:51:59;;;;;;;38;30.3;;;;;;;4.65;60.71875;959.2563;;;;
2019/04/14 02:00:29;;;;;;;36.4;30.4;;;;;;;4.52;60.72363;959.3505;;;;
2019/04/14 02:02:44;;;;;;;37.4;30.1;;;;;;;4.63;59.60547;959.4291;;;;
2019/04/14 02:05:09;;;;;;;38.5;29.6;;;;;;;4.51;60.61914;959.4158;;;;
2019/04/14 02:07:36;;;;;;;36.7;29.8;;;;;;;4.57;59.55176;959.4372;;;;
2019/04/14 02:10:01;;;;;;;36.8;29.7;;;;;;;4.57;59.7207;959.4072;;;;
2019/04/14 02:12:28;;;;;;;35.3;29.3;;;;;;;4.48;60.21973;959.4389;;;;
2019/04/14 02:14:53;;;;;;;36.6;29.5;;;;;;;4.49;60.23047;959.4515;;;;
2019/04/14 02:17:18;;;;;;;39.6;30.3;;;;;;;4.39;60.7959;959.3632;;;;
2019/04/14 02:19:44;;;;;;;37.9;31.4;;;;;;;4.27;61.19824;959.3704;;;;
2019/04/14 02:22:09;;;;;;;38.5;30.9;;;;;;;4.33;60.98047;959.3325;;;;
2019/04/14 02:24:35;;;;;;;37.2;29.5;;;;;;;4.28;61.43848;959.3742;;;;
2019/04/14 02:27:00;;;;;;;37.2;31.4;;;;;;;4.31;61.86133;959.3594;;;;
2019/04/14 02:29:25;;;;;;;39.5;32.2;;;;;;;4.23;62.07715;959.2914;;;;
2019/04/14 02:31:51;;;;;;;38.5;30.3;;;;;;;4.38;60.94141;959.1831;;;;
2019/04/14 02:34:18;;;;;;;37;30.5;;;;;;;4.36;61.14355;959.2742;;;;
2019/04/14 02:36:43;;;;;;;40;31.2;;;;;;;4.45;60.3623;959.2819;;;;
2019/04/14 02:39:10;;;;;;;36.5;30.7;;;;;;;4.17;61.875;959.3169;;;;
2019/04/14 02:41:35;;;;;;;36.8;29.6;;;;;;;4.1;61.28711;959.3038;;;;
2019/04/14 02:44:01;;;;;;;37.9;30.5;;;;;;;4.09;61.69434;959.2699;;;;
2019/04/14 02:46:26;;;;;;;36.4;29.6;;;;;;;4.16;61.6582;959.2787;;;;
2019/04/14 02:48:51;;;;;;;37.5;30.6;;;;;;;4.12;62.51465;959.2897;;;;
2019/04/14 02:51:17;;;;;;;39.7;32;;;;;;;4.07;62.51758;959.2971;;;;
2019/04/14 02:53:42;;;;;;;38.3;31.6;;;;;;;4.05;63.88672;959.3715;;;;
2019/04/14 02:56:07;;;;;;;40.9;31;;;;;;;4;63.17773;959.3354;;;;
2019/04/14 02:58:32;;;;;;;38.7;31.7;;;;;;;4.06;62.41602;959.3533;;;;
2019/04/14 03:00:57;;;;;;;40.8;31.6;;;;;;;4.15;62.35938;959.3998;;;;
2019/04/14 03:03:22;;;;;;;41.4;32.2;;;;;;;3.97;62.83203;959.3678;;;;
2019/04/14 03:05:49;;;;;;;41.6;32.4;;;;;;;3.88;62.83203;959.377;;;;
2019/04/14 03:08:14;;;;;;;40.9;31.2;;;;;;;3.95;62.20508;959.2701;;;;
2019/04/14 03:10:41;;;;;;;40.6;32;;;;;;;4.07;61.53223;959.3745;;;;
2019/04/14 03:13:06;;;;;;;39.8;31;;;;;;;3.99;61.6123;959.4005;;;;
2019/04/14 03:15:34;;;;;;;39.4;31.1;;;;;;;3.89;61.88086;959.3469;;;;
2019/04/14 03:18:10;;;;;;;40.4;31.9;;;;;;;3.68;63.12988;959.394;;;;
2019/04/14 03:22:59;;;;;;;36.2;30.3;;;;;;;3.72;62.66016;959.3055;;;;
2019/04/14 03:25:31;;;;;;;39.4;32.1;;;;;;;3.69;62.9502;959.2903;;;;
2019/04/14 03:28:00;;;;;;;40;31.3;;;;;;;3.76;62.54102;959.2603;;;;
2019/04/14 03:30:14;;;;;;;38.2;31;;;;;;;3.79;62.2168;959.2795;;;;
2019/04/14 03:32:34;;;;;;;39;31.2;;;;;;;3.75;62.7666;959.3382;;;;
2019/04/14 03:34:59;;;;;;;36.5;30.5;;;;;;;3.77;62.20313;959.3972;;;;
2019/04/14 03:37:24;;;;;;;41.8;31.7;;;;;;;3.54;63.83301;959.4197;;;;
2019/04/14 03:39:50;;;;;;;41.2;32.9;;;;;;;3.45;65.12109;959.4504;;;;
2019/04/14 03:42:15;;;;;;;40.3;32.8;;;;;;;3.49;63.91797;959.4264;;;;
2019/04/14 03:44:42;;;;;;;41.6;33.1;;;;;;;3.45;63.72949;959.4767;;;;
2019/04/14 03:47:08;;;;;;;42;32.9;;;;;;;3.55;63.31445;959.4661;;;;
2019/04/14 03:49:34;;;;;;;40.5;32.3;;;;;;;3.52;63.80762;959.4509;;;;
2019/04/14 03:51:59;;;;;;;40.7;32.6;;;;;;;3.52;63.68359;959.4422;;;;
2019/04/14 03:54:24;;;;;;;42.1;32;;;;;;;3.47;64.18555;959.4366;;;;
2019/04/14 03:56:52;;;;;;;41.6;33.2;;;;;;;3.46;63.91309;959.5056;;;;
2019/04/14 03:59:17;;;;;;;43.4;34;;;;;;;3.43;64.32813;959.5115;;;;
2019/04/14 04:02:29;;;;;;;42.2;32.1;;;;;;;3.55;63.5752;959.462;;;;
2019/04/14 04:04:54;;;;;;;40.7;33.1;;;;;;;3.5;63.64648;959.5206;;;;
2019/04/14 04:07:19;;;;;;;41.5;33.1;;;;;;;3.47;63.9707;959.488;;;;
2019/04/14 04:09:54;;;;;;;40.8;32.5;;;;;;;3.39;64.52441;959.5402;;;;
2019/04/14 04:12:09;;;;;;;40.4;32;;;;;;;3.27;64.89063;959.5814;;;;
2019/04/14 04:14:34;;;;;;;38.9;31.4;;;;;;;3.34;65.24121;959.6288;;;;
2019/04/14 04:20:56;;;;;;;41.9;33.9;;;;;;;3.31;64.32031;959.6219;;;;
2019/04/14 04:23:07;;;;;;;41.7;32.3;;;;;;;3.42;65.60352;959.5729;;;;
2019/04/14 04:26:01;;;;;;;39.1;31.6;;;;;;;3.4;63.59668;959.5566;;;;
2019/04/14 04:28:04;;;;;;;40.2;32.5;;;;;;;3.29;64.56445;959.619;;;;
2019/04/14 04:30:26;;;;;;;40.6;31.6;;;;;;;3.2;65.38965;959.5639;;;;
2019/04/14 04:34:31;;;;;;;41;32.3;;;;;;;3.25;64.58203;959.5652;;;;
2019/04/14 04:35:12;;;;;;;43.9;32.8;;;;;;;3.18;64.05176;959.694;;;;
2019/04/14 04:37:35;;;;;;;38.8;31.1;;;;;;;3.26;64.99121;959.6208;;;;
2019/04/14 04:39:57;;;;;;;41.4;32.7;;;;;;;3.34;65.03711;959.685;;;;
2019/04/14 04:42:23;;;;;;;40.2;31.8;;;;;;;3.44;64.75879;959.7046;;;;
2019/04/14 04:44:48;;;;;;;41.2;32;;;;;;;3.33;64.46973;959.7155;;;;
2019/04/14 04:47:16;;;;;;;41.6;31.4;;;;;;;3.4;64.1748;959.7581;;;;
2019/04/14 04:49:41;;;;;;;39.8;31.6;;;;;;;3.33;64.29883;959.7458;;;;
2019/04/14 04:52:07;;;;;;;38.8;30.7;;;;;;;3.51;63.4668;959.7947;;;;
2019/04/14 04:54:32;;;;;;;37.9;31.1;;;;;;;3.58;62.1748;959.7395;;;;
2019/04/14 04:56:57;;;;;;;39.1;31.8;;;;;;;3.49;63.14844;959.8002;;;;
2019/04/14 04:59:22;;;;;;;38.4;30.8;;;;;;;3.49;62.64746;959.762;;;;
2019/04/14 05:01:47;;;;;;;40.5;31.1;;;;;;;3.4;63.29102;959.7715;;;;
2019/04/14 05:04:14;;;;;;;38.1;31.2;;;;;;;3.46;62.47559;959.7891;;;;
2019/04/14 05:07:38;;;;;;;40.4;31.7;;;;;;;3.37;64.66797;959.7946;;;;
2019/04/14 05:10:28;;;;;;;37.5;30.5;;;;;;;3.46;64.32031;959.8148;;;;
2019/04/14 05:12:54;;;;;;;40.6;32.2;;;;;;;3.42;64.3252;959.8172;;;;
2019/04/14 05:15:03;;;;;;;43.7;33.3;;;;;;;3.46;64.39941;959.9437;;;;
2019/04/14 05:17:19;;;;;;;40.4;31.1;;;;;;;3.54;63.49512;959.9734;;;;
2019/04/14 05:19:44;;;;;;;40.9;31.2;;;;;;;3.59;63.40039;959.9878;;;;
2019/04/14 05:22:09;;;;;;;39.7;31.8;;;;;;;3.53;64.62402;959.9572;;;;
2019/04/14 05:24:34;;;;;;;39.7;30.7;;;;;;;3.66;63.20605;959.962;;;;
2019/04/14 05:27:00;;;;;;;39.2;31.4;;;;;;;3.63;63.71094;960.02;;;;
2019/04/14 05:29:25;;;;;;;40.2;32;;;;;;;3.61;63.32324;960.0383;;;;
2019/04/14 05:31:52;;;;;;;39.1;31.4;;;;;;;3.68;63.66211;959.9955;;;;
2019/04/14 05:34:17;;;;;;;36.9;30.3;;;;;;;3.8;62.94434;960.0055;;;;
2019/04/14 05:36:42;;;;;;;40;31.4;;;;;;;3.77;63.36914;960.0676;;;;
2019/04/14 05:39:07;;;;;;;40.1;31;;;;;;;3.84;62.28125;959.9814;;;;
2019/04/14 05:41:32;;;;;;;38;30.5;;;;;;;3.9;62.4375;960.0639;;;;
2019/04/14 05:43:57;;;;;;;38.9;31.3;;;;;;;3.86;62.84082;960.0147;;;;
2019/04/14 05:46:22;;;;;;;38.9;30.2;;;;;;;3.87;61.50293;960.0187;;;;
2019/04/14 05:48:48;;;;;;;38.2;30.9;;;;;;;3.87;61.32324;960.0441;;;;
2019/04/14 05:51:13;;;;;;;38.2;30.1;;;;;;;3.89;63.43359;960.0128;;;;
2019/04/14 05:53:39;;;;;;;39.9;30.7;;;;;;;3.88;63.5459;960.0435;;;;
2019/04/14 05:56:05;;;;;;;39;31;;;;;;;4.02;62.22852;960.1044;;;;
2019/04/14 05:58:30;;;;;;;37.2;29.8;;;;;;;4.17;60.60449;960.1426;;;;
2019/04/14 06:00:57;;;;;;;36.1;28.8;;;;;;;4.33;59.74414;960.1022;;;;
2019/04/14 06:03:22;;;;;;;39.4;31.1;;;;;;;4.12;61.12012;960.1194;;;;
2019/04/14 06:05:47;;;;;;;36.4;29.7;;;;;;;4.16;60.78516;960.2206;;;;
2019/04/14 06:08:12;;;;;;;34.4;27.9;;;;;;;4.42;58.99707;960.1697;;;;
2019/04/14 06:10:37;;;;;;;36.5;28.8;;;;;;;4.39;59.49121;960.2062;;;;
2019/04/14 06:13:06;;;;;;;37;29.8;;;;;;;4.41;59.45898;960.2095;;;;
2019/04/14 06:15:31;;;;;;;36;28.4;;;;;;;4.44;59.25977;960.2335;;;;
2019/04/14 06:17:56;;;;;;;36.1;29;;;;;;;4.5;59.52832;960.1869;;;;
2019/04/14 06:20:22;;;;;;;37.2;28.8;;;;;;;4.47;58.52637;960.2228;;;;
2019/04/14 06:22:47;;;;;;;37.6;28.9;;;;;;;4.46;58.0957;960.1758;;;;
2019/04/14 06:25:12;;;;;;;34.2;29;;;;;;;4.36;59.01074;960.2769;;;;
2019/04/14 06:27:37;;;;;;;36.9;29.7;;;;;;;4.47;59.10547;960.2445;;;;
2019/04/14 06:30:11;;;;;;;36.9;30;;;;;;;4.49;59.3457;960.2217;;;;
2019/04/14 06:32:32;;;;;;;36.2;28.9;;;;;;;4.49;59.37988;960.2605;;;;
2019/04/14 06:37:28;;;;;;;37.2;28.5;;;;;;;4.6;58.05566;960.275;;;;
2019/04/14 06:39:46;;;;;;;38.7;29.1;;;;;;;4.59;58.22559;960.2885;;;;
2019/04/14 06:42:08;;;;;;;36.1;28.7;;;;;;;4.46;58.62695;960.3139;;;;
2019/04/14 06:44:36;;;;;;;37.8;30.2;;;;;;;4.46;59.92188;960.3008;;;;
2019/04/14 06:47:01;;;;;;;38.6;29.1;;;;;;;4.47;59.89941;960.339;;;;
2019/04/14 06:49:26;;;;;;;38;30.5;;;;;;;4.49;59.0166;960.2731;;;;
2019/04/14 06:51:52;;;;;;;35.8;29.8;;;;;;;4.5;60.81055;960.2942;;;;
2019/04/14 06:54:17;;;;;;;36.9;28.8;;;;;;;4.61;59.45313;960.3649;;;;
2019/04/14 06:56:45;;;;;;;38.6;29.7;;;;;;;4.67;58.97461;960.2961;;;;
2019/04/14 06:59:10;;;;;;;36.1;28.7;;;;;;;4.85;57.71582;960.2892;;;;
2019/04/14 07:01:36;;;;;;;36.3;29.3;;;;;;;4.92;57.90625;960.2806;;;;
2019/04/14 07:04:01;;;;;;;36.8;29.4;;;;;;;4.76;58.35156;960.2217;;;;
2019/04/14 07:06:26;;;;;;;38.5;30.1;;;;;;;4.86;59.2168;960.3057;;;;
2019/04/14 07:08:52;;;;;;;39.3;29.8;;;;;;;5.01;57.54395;960.3052;;;;
2019/04/14 07:11:17;;;;;;;36.2;28.6;;;;;;;5.03;58.48047;960.3379;;;;
2019/04/14 07:13:43;;;;;;;38.4;31.2;;;;;;;4.85;59.48828;960.3367;;;;
2019/04/14 07:16:08;;;;;;;36.6;29.4;;;;;;;5;58.85059;960.3099;;;;
2019/04/14 07:18:34;;;;;;;36.1;28.7;;;;;;;5.27;56.93164;960.3484;;;;
2019/04/14 07:20:59;;;;;;;35.9;29.4;;;;;;;5.17;57.63379;960.3117;;;;
2019/04/14 07:23:24;;;;;;;37.2;30.2;;;;;;;5.33;58.30371;960.2545;;;;
2019/04/14 07:25:49;;;;;;;38.3;29.6;;;;;;;5.38;57.92383;960.2593;;;;
2019/04/14 07:28:14;;;;;;;36.3;29.2;;;;;;;5.45;58.52539;960.2288;;;;
2019/04/14 07:36:04;;;;;;;37.1;30.8;;;;;;;5.63;56.83008;960.3383;;;;
2019/04/14 07:38:17;;;;;;;35.9;29.5;;;;;;;5.66;56.86914;960.2798;;;;
2019/04/14 07:40:52;;;;;;;34;30.4;;;;;;;5.71;57.63867;960.2419;;;;
2019/04/14 07:43:07;;;;;;;33.4;30;;;;;;;5.89;56.37793;960.2556;;;;
2019/04/14 07:48:34;;;;;;;34.9;31.3;;;;;;;5.79;58.32031;960.2886;;;;
2019/04/14 07:58:38;;;;;;;35;31.4;;;;;;;6.02;56.29199;960.2817;;;;
2019/04/14 08:00:18;;;;;;;34.7;31.3;;;;;;;6.07;56.40039;960.2869;;;;
2019/04/14 08:02:43;;;;;;;35.5;31.9;;;;;;;6;57.48438;960.2914;;;;
2019/04/14 08:05:10;;;;;;;35.3;31.6;;;;;;;6.04;56.4082;960.2672;;;;
2019/04/14 08:07:29;;;;;;;34.7;31.1;;;;;;;5.95;56.78223;960.2217;;;;
2019/04/14 08:09:54;;;;;;;35.1;31.6;;;;;;;6;56.03809;960.2531;;;;
2019/04/14 08:12:19;;;;;;;36;32.3;;;;;;;6.09;57.53027;960.2339;;;;
2019/04/14 08:14:44;;;;;;;36.8;33.1;;;;;;;6.21;56.7373;960.1608;;;;
2019/04/14 08:17:11;;;;;;;35;31.5;;;;;;;6.21;56.40625;960.1914;;;;
2019/04/14 08:19:37;;;;;;;34.8;31.3;;;;;;;6.42;54.72559;960.1982;;;;
2019/04/14 08:22:02;;;;;;;34.6;31.1;;;;;;;6.54;54.23926;960.1507;;;;
2019/04/14 08:24:28;;;;;;;33.8;30.4;;;;;;;6.49;55.24707;960.2578;;;;
2019/04/14 08:26:54;;;;;;;34.9;31.2;;;;;;;6.43;54.63477;960.2058;;;;
2019/04/14 08:29:19;;;;;;;34.9;31.4;;;;;;;6.49;56.19336;960.1973;;;;
2019/04/14 08:31:44;;;;;;;35.9;32.1;;;;;;;6.58;54.4834;960.2083;;;;
2019/04/14 08:34:10;;;;;;;33.2;29.9;;;;;;;6.64;54.62793;960.2905;;;;
2019/04/14 08:36:36;;;;;;;35.3;31.8;;;;;;;6.68;54.87207;960.1888;;;;
2019/04/14 08:39:01;;;;;;;33.9;30.5;;;;;;;6.9;53.07422;960.1599;;;;
2019/04/14 08:41:30;;;;;;;32.9;29.6;;;;;;;7.08;51.7832;960.2031;;;;
2019/04/14 08:44:36;;;;;;;33.7;30.3;;;;;;;7.17;51.66992;960.2177;;;;
2019/04/14 08:46:34;;;;;;;32.5;29.1;;;;;;;7.37;51.31543;960.1779;;;;
2019/04/14 08:48:51;;;;;;;33.2;29.8;;;;;;;7.54;51.46289;960.156;;;;
2019/04/14 08:53:58;;;;;;;33.1;29.6;;;;;;;7.78;47.86523;960.1949;;;;
2019/04/14 08:56:21;;;;;;;31.6;28.3;;;;;;;7.73;48.02051;960.1942;;;;
2019/04/14 08:58:50;;;;;;;31.3;28.1;;;;;;;7.76;49.46484;960.1747;;;;
2019/04/14 09:01:14;;;;;;;32.1;28.9;;;;;;;7.65;49.01758;960.1089;;;;
2019/04/14 09:06:35;;;;;;;30.2;27.2;;;;;;;7.75;47.0166;960.1406;;;;
2019/04/14 09:08:27;;;;;;;31.1;27.9;;;;;;;7.75;48.48145;960.2355;;;;
2019/04/14 09:10:48;;;;;;;31.2;28;;;;;;;7.94;48.55957;960.2039;;;;
2019/04/14 09:13:10;;;;;;;30.2;27.2;;;;;;;8.1;48.55371;960.2051;;;;
2019/04/14 09:15:35;;;;;;;30.1;27.1;;;;;;;8.21;47.92578;960.1403;;;;
2019/04/14 09:18:00;;;;;;;30.2;27.1;;;;;;;8.07;47.37207;960.1638;;;;
2019/04/14 09:20:26;;;;;;;30.4;27.4;;;;;;;8.37;46.86719;960.1147;;;;
2019/04/14 09:22:51;;;;;;;30.5;27.5;;;;;;;8.5;48.01465;960.0833;;;;
2019/04/14 09:25:16;;;;;;;30.8;27.6;;;;;;;8.61;45.89648;960.0705;;;;
2019/04/14 09:27:42;;;;;;;31.2;28;;;;;;;8.48;47.41797;960.0891;;;;
2019/04/14 09:30:08;;;;;;;30.6;27.4;;;;;;;8.4;48.2793;960.1475;;;;
2019/04/14 09:32:33;;;;;;;30.1;26.9;;;;;;;8.53;44.90234;960.0815;;;;
2019/04/14 09:35:06;;;;;;;29.6;26.4;;;;;;;8.6;46.39941;960.132;;;;
2019/04/14 09:37:31;;;;;;;29.6;26.6;;;;;;;8.75;43.11523;960.0939;;;;
2019/04/14 09:39:56;;;;;;;28.9;26;;;;;;;8.78;43.17578;960.1345;;;;
2019/04/14 09:42:21;;;;;;;31.4;27.1;;;;;;;8.65;44.85742;960.1067;;;;
2019/04/14 09:44:46;;;;;;;28.6;25.8;;;;;;;8.75;43.77832;960.1378;;;;
2019/04/14 09:47:11;;;;;;;29.1;26.2;;;;;;;8.63;44.89063;960.1078;;;;
2019/04/14 09:49:36;;;;;;;29.6;26.5;;;;;;;8.65;45.07617;960.1238;;;;
2019/04/14 09:52:15;;;;;;;32.5;29;;;;;;;8.78;45.21582;960.1476;;;;
2019/04/14 09:54:30;;;;;;;30.8;27.7;;;;;;;8.77;45.52344;960.2051;;;;
2019/04/14 09:57:06;;;;;;;31.4;28.1;;;;;;;8.7;47.69434;960.0762;;;;
2019/04/14 09:59:31;;;;;;;30.6;27.6;;;;;;;8.65;44.53613;960.1717;;;;
2019/04/14 10:01:56;;;;;;;30.3;27.2;;;;;;;8.6;44.9209;960.1539;;;;
2019/04/14 10:04:21;;;;;;;30.5;27.5;;;;;;;8.48;44.81641;960.2067;;;;
2019/04/14 10:06:46;;;;;;;31.7;28.4;;;;;;;8.31;45.98047;960.2836;;;;
2019/04/14 10:09:11;;;;;;;30.7;27.3;;;;;;;8.29;45.54199;960.2467;;;;
2019/04/14 10:11:36;;;;;;;29.9;26.9;;;;;;;8.49;45.20801;960.1882;;;;
2019/04/14 10:14:01;;;;;;;30.8;27.8;;;;;;;8.6;45.21973;960.2791;;;;
2019/04/14 10:16:27;;;;;;;30.5;27.4;;;;;;;8.74;45.46387;960.3464;;;;
2019/04/14 10:18:52;;;;;;;29.4;26.4;;;;;;;8.99;44.5957;960.3221;;;;
2019/04/14 10:21:17;;;;;;;30.2;27;;;;;;;9.06;43.55957;960.3727;;;;
2019/04/14 10:23:42;;;;;;;29.5;26.5;;;;;;;8.96;43.38867;960.2506;;;;
2019/04/14 10:26:07;;;;;;;29;26;;;;;;;8.86;44.54688;960.2634;;;;
2019/04/14 10:28:32;;;;;;;29.7;26.7;;;;;;;8.76;42.94434;960.3013;;;;
2019/04/14 10:30:58;;;;;;;29.4;26.4;;;;;;;8.72;43.73145;960.2394;;;;
2019/04/14 10:33:23;;;;;;;30.6;27.4;;;;;;;8.81;45.86035;960.3148;;;;
2019/04/14 10:35:48;;;;;;;30.2;27.2;;;;;;;8.87;45.72949;960.2614;;;;
2019/04/14 10:38:13;;;;;;;29.8;26.8;;;;;;;9.1;44.60645;960.2869;;;;
2019/04/14 10:40:38;;;;;;;30.1;26.9;;;;;;;9.29;45.25684;960.246;;;;
2019/04/14 10:43:03;;;;;;;29.7;26.6;;;;;;;9.33;43.65527;960.251;;;;
2019/04/14 10:45:28;;;;;;;29.7;26.7;;;;;;;9.35;44.42676;960.2883;;;;
2019/04/14 10:47:54;;;;;;;28.6;25.8;;;;;;;9.47;44.02441;960.318;;;;
2019/04/14 10:50:19;;;;;;;29.1;26.2;;;;;;;9.5;42.2832;960.2764;;;;
2019/04/14 10:52:46;;;;;;;29.8;26.8;;;;;;;9.69;42.9668;960.3173;;;;
2019/04/14 10:55:11;;;;;;;29.6;26.5;;;;;;;9.84;41.10938;960.3136;;;;
2019/04/14 10:57:36;;;;;;;27.4;24.6;;;;;;;9.71;40.20117;960.3114;;;;
2019/04/14 11:00:07;;;;;;;27.1;24.4;;;;;;;9.81;40.84277;960.2901;;;;
2019/04/14 11:02:30;;;;;;;27.7;25;;;;;;;10.02;40.25293;960.2639;;;;
2019/04/14 11:04:55;;;;;;;29.9;26.8;;;;;;;10.06;43.16504;960.278;;;;
2019/04/14 11:07:30;;;;;;;29.3;26.4;;;;;;;9.95;41.29297;960.2999;;;;
2019/04/14 11:09:46;;;;;;;28.8;25.9;;;;;;;10.03;40.97949;960.2929;;;;
2019/04/14 11:12:11;;;;;;;28.9;26;;;;;;;10.08;40.59277;960.211;;;;
2019/04/14 11:14:36;;;;;;;29.2;26.3;;;;;;;10.35;41.81445;960.301;;;;
2019/04/14 11:17:02;;;;;;;29.6;26.6;;;;;;;10.37;40.70117;960.3469;;;;
2019/04/14 11:19:27;;;;;;;28.9;26.1;;;;;;;10.33;40.69629;960.3208;;;;
2019/04/14 11:21:52;;;;;;;28.9;26;;;;;;;10.15;40.09277;960.3525;;;;
2019/04/14 11:24:17;;;;;;;29.4;26.2;;;;;;;10.06;40.4873;960.3953;;;;
2019/04/14 11:26:42;;;;;;;27.8;25;;;;;;;10.13;40.85059;960.4236;;;;
2019/04/14 11:29:07;;;;;;;28.3;25.5;;;;;;;10.39;40.42578;960.3848;;;;
2019/04/14 11:32:00;;;;;;;27.4;24.6;;;;;;;10.72;39.77734;960.3434;;;;
2019/04/14 11:34:01;;;;;;;27.9;25.2;;;;;;;11.02;38.67676;960.3386;;;;
2019/04/14 11:38:53;;;;;;;27.2;24.4;;;;;;;11.03;40.29004;960.403;;;;
2019/04/14 11:41:17;;;;;;;27.3;24.6;;;;;;;11.14;38.61719;960.3766;;;;
2019/04/14 11:43:38;;;;;;;27.8;25;;;;;;;11.16;38.16992;960.3787;;;;
2019/04/14 11:46:03;;;;;;;27.2;24.4;;;;;;;11.08;37.10254;960.4114;;;;
2019/04/14 11:48:28;;;;;;;26.8;24.1;;;;;;;10.81;38.50879;960.4568;;;;
2019/04/14 11:50:53;;;;;;;27.3;24.5;;;;;;;11.24;37.84277;960.45;;;;
2019/04/14 11:53:22;;;;;;;26.5;23.8;;;;;;;11.44;36.83398;960.5108;;;;
2019/04/14 11:55:47;;;;;;;26.9;24.2;;;;;;;11.56;35.66797;960.4867;;;;
2019/04/14 11:58:12;;;;;;;28.1;25.1;;;;;;;11.83;36.33594;960.4975;;;;
2019/04/14 12:06:50;;;;;;;26.6;24;;;;;;;12.06;35.47754;960.5201;;;;
2019/04/14 12:11:30;;;;;;;27;24.3;;;;;;;12.44;35.3584;960.6414;;;;
2019/04/14 12:13:55;;;;;;;25.9;23.3;;;;;;;12.54;33.9209;960.6364;;;;
2019/04/14 12:16:20;;;;;;;31.5;28.2;;;;;;;12.55;35.61035;960.6356;;;;
2019/04/14 12:18:45;;;;;;;26.3;23.7;;;;;;;12.45;33.625;960.7848;;;;
2019/04/14 12:21:10;;;;;;;28.2;25.4;;;;;;;11.76;34.67969;960.6599;;;;
2019/04/14 12:23:36;;;;;;;28.1;25.3;;;;;;;11.57;35.64551;960.7161;;;;
2019/04/14 12:26:10;;;;;;;25.1;22.6;;;;;;;11.92;35.1084;960.7679;;;;
2019/04/14 12:28:35;;;;;;;26.4;23.9;;;;;;;12.36;34.18457;960.7761;;;;
2019/04/14 12:31:01;;;;;;;26.1;23.4;;;;;;;12.19;35.28027;960.7303;;;;
2019/04/14 12:33:26;;;;;;;25.5;23;;;;;;;11.98;35.88672;960.8448;;;;
2019/04/14 12:35:51;;;;;;;26.5;23.9;;;;;;;12.02;35.04688;960.8412;;;;
2019/04/14 12:38:16;;;;;;;25.8;23.1;;;;;;;11.77;34.54199;960.855;;;;
2019/04/14 12:40:41;;;;;;;26.2;23.5;;;;;;;11.98;35.19434;960.8146;;;;
2019/04/14 12:46:51;;;;;;;26.1;23.6;;;;;;;11.8;36.16016;960.7747;;;;
2019/04/14 12:49:15;;;;;;;25.3;22.9;;;;;;;11.94;32.82422;960.788;;;;
2019/04/14 12:51:38;;;;;;;24.9;22.4;;;;;;;12.22;32.67188;960.7406;;;;
2019/04/14 12:53:57;;;;;;;25.7;23.2;;;;;;;12.28;32.93066;960.7961;;;;
2019/04/14 12:56:25;;;;;;;25.4;22.9;;;;;;;12.19;33.02734;960.8047;;;;
2019/04/14 13:01:13;;;;;;;25.7;23.3;;;;;;;11.72;33.96094;960.8948;;;;
2019/04/14 13:03:40;;;;;;;26.3;23.6;;;;;;;11.57;35.20703;960.8164;;;;
2019/04/14 13:06:04;;;;;;;27.5;24.8;;;;;;;11.67;35.27246;960.7205;;;;
2019/04/14 13:08:30;;;;;;;26.6;24;;;;;;;11.62;35.41797;960.699;;;;
2019/04/14 13:10:56;;;;;;;27.4;24.8;;;;;;;11.66;35.97461;960.7388;;;;
2019/04/14 13:13:21;;;;;;;26.6;24.1;;;;;;;11.45;36.86914;960.7402;;;;
2019/04/14 13:15:46;;;;;;;26.8;24.1;;;;;;;11.57;35.47266;960.8597;;;;
2019/04/14 13:18:11;;;;;;;25.8;23.2;;;;;;;11.45;33.97461;960.7098;;;;
2019/04/14 13:20:37;;;;;;;24.1;21.8;;;;;;;11.15;34.23828;960.6671;;;;
2019/04/14 13:23:03;;;;;;;25.2;22.6;;;;;;;11.17;34.43652;960.7344;;;;
2019/04/14 13:25:28;;;;;;;24.5;22;;;;;;;11.15;34.82813;960.7967;;;;
2019/04/14 13:27:53;;;;;;;24.6;22.2;;;;;;;11.35;34.82031;960.7924;;;;
2019/04/14 13:30:25;;;;;;;24.4;22.1;;;;;;;11.45;35.90039;960.7319;;;;
2019/04/14 13:32:46;;;;;;;25;22.4;;;;;;;11.24;35.47949;960.6499;;;;
2019/04/14 13:35:11;;;;;;;24.4;22.1;;;;;;;11.39;34.8916;960.6892;;;;
2019/04/14 13:37:36;;;;;;;25.2;22.7;;;;;;;11.56;35.29785;960.7307;;;;
2019/04/14 13:40:01;;;;;;;24.1;21.8;;;;;;;11.4;33.72754;960.684;;;;
2019/04/14 13:42:26;;;;;;;23.9;21.6;;;;;;;11.53;36.93457;960.6934;;;;
2019/04/14 13:44:52;;;;;;;24.4;22;;;;;;;11.43;35.24121;960.7204;;;;
2019/04/14 13:47:17;;;;;;;24.2;21.9;;;;;;;11.4;35.55078;960.7183;;;;
2019/04/14 13:49:42;;;;;;;25;22.5;;;;;;;11.47;36.08691;960.73;;;;
2019/04/14 13:52:07;;;;;;;25.8;23.1;;;;;;;11.61;36.8252;960.6696;;;;
2019/04/14 13:54:32;;;;;;;24.8;22.5;;;;;;;11.7;35.13672;960.6523;;;;
2019/04/14 13:56:57;;;;;;;24.8;22.5;;;;;;;11.68;35.67773;960.7368;;;;
2019/04/14 13:59:22;;;;;;;24.8;22.3;;;;;;;11.4;35.78027;960.71;;;;
2019/04/14 14:01:51;;;;;;;24.2;21.9;;;;;;;11.3;36.17578;960.7146;;;;
2019/04/14 14:04:16;;;;;;;24.7;22.3;;;;;;;11.47;36.59473;960.7209;;;;
2019/04/14 14:06:42;;;;;;;23.3;20.9;;;;;;;11.64;35.68555;960.7583;;;;
2019/04/14 14:09:09;;;;;;;23.7;21.3;;;;;;;11.56;36.36035;960.7911;;;;
2019/04/14 14:11:58;;;;;;;24;21.7;;;;;;;11.51;35.6748;960.7999;;;;
2019/04/14 14:14:05;;;;;;;25.2;22.5;;;;;;;11.53;35.81445;960.82;;;;
2019/04/14 14:18:53;;;;;;;23.4;21;;;;;;;11.52;35.87207;960.8084;;;;
2019/04/14 14:22:02;;;;;;;21.8;19.6;;;;;;;11.3;37.24805;960.7709;;;;
2019/04/14 14:23:52;;;;;;;22.5;20.2;;;;;;;11.36;34.87891;960.7434;;;;
2019/04/14 14:26:06;;;;;;;21.7;19.6;;;;;;;11.19;34.78418;960.7194;;;;
2019/04/14 14:28:28;;;;;;;21.3;19.2;;;;;;;11.41;36.15137;960.7608;;;;
2019/04/14 14:30:54;;;;;;;22.5;20.3;;;;;;;11.42;34.95215;960.7772;;;;
2019/04/14 14:33:19;;;;;;;23.2;20.8;;;;;;;11.18;36.9043;960.7949;;;;
2019/04/14 14:35:45;;;;;;;23.6;21.3;;;;;;;11.34;35.90332;960.7629;;;;
2019/04/14 14:38:10;;;;;;;23.8;21.4;;;;;;;11.36;36.8623;960.7916;;;;
2019/04/14 14:40:36;;;;;;;22.7;20.3;;;;;;;11.47;34.84082;960.8434;;;;
2019/04/14 14:43:01;;;;;;;22.2;20;;;;;;;11.14;35.19434;960.759;;;;
2019/04/14 14:45:46;;;;;;;21.5;19.4;;;;;;;11.01;36.35938;960.8705;;;;
2019/04/14 14:47:59;;;;;;;22;19.9;;;;;;;10.73;36.27832;960.76;;;;
2019/04/14 14:50:28;;;;;;;21.9;19.8;;;;;;;10.9;36.1543;960.823;;;;
2019/04/14 14:52:41;;;;;;;21.8;19.7;;;;;;;10.91;36.24707;960.8182;;;;
2019/04/14 14:55:06;;;;;;;21.3;19.2;;;;;;;10.9;35.35938;960.8018;;;;
2019/04/14 14:57:45;;;;;;;22.3;20;;;;;;;10.92;37.96484;960.8301;;;;
2019/04/14 15:00:30;;;;;;;21.3;19.2;;;;;;;10.97;36.0459;960.8994;;;;